Time;durP1;ratioP1;P1;durP2;ratioP2;P2;SDS_P1;SDS_P2;PMS_P1;PMS_P2;Temp;Humidity;BMP_temperature;BMP_pressure;BME280_temperature;BME280_humidity;BME280_pressure;Samples;Min_cycle;Max_cycle;Signal;HPM_P1;HPM_P2
2023/03/16 00:02:04;;;;;;;0.80;0.80;;;;;;;;;;4998454;28;20184;-84
2023/03/16 00:04:30;;;;;;;0.90;0.90;;;;;;;;;;4997699;28;20205;-85
2023/03/16 00:06:56;;;;;;;0.90;0.90;;;;;;;;;;4998058;28;20183;-85
2023/03/16 00:09:29;;;;;;;0.90;0.90;;;;;;;;;;4998375;28;20196;-84
2023/03/16 00:11:55;;;;;;;0.80;0.80;;;;;;;;;;4998711;28;20208;-85
2023/03/16 00:14:21;;;;;;;0.90;0.90;;;;;;;;;;4997725;28;20676;-84
2023/03/16 00:16:47;;;;;;;0.83;0.83;;;;;;;;;;4998471;28;20272;-82
2023/03/16 00:19:13;;;;;;;0.80;0.80;;;;;;;;;;4998709;28;20181;-84
2023/03/16 00:21:39;;;;;;;0.90;0.90;;;;;;;;;;4998655;28;20205;-85
2023/03/16 00:24:05;;;;;;;0.90;0.90;;;;;;;;;;4998065;28;20217;-85
2023/03/16 00:26:32;;;;;;;0.90;0.90;;;;;;;;;;4998775;28;20184;-85
2023/03/16 00:28:58;;;;;;;1.00;1.00;;;;;;;;;;4998550;28;20640;-85
2023/03/16 00:31:23;;;;;;;0.80;0.80;;;;;;;;;;4999178;28;20185;-85
2023/03/16 00:33:50;;;;;;;0.80;0.80;;;;;;;;;;4997633;28;20276;-85
2023/03/16 00:36:16;;;;;;;0.90;0.90;;;;;;;;;;4999375;28;20182;-85
2023/03/16 00:38:44;;;;;;;0.77;0.77;;;;;;;;;;5002901;28;20247;-83
2023/03/16 00:41:13;;;;;;;0.90;0.90;;;;;;;;;;5021608;28;20164;-83
2023/03/16 00:43:39;;;;;;;0.90;0.90;;;;;;;;;;5020719;28;20218;-81
2023/03/16 00:46:06;;;;;;;0.90;0.90;;;;;;;;;;5005676;28;20249;-84
2023/03/16 00:48:33;;;;;;;0.83;0.83;;;;;;;;;;5016056;28;20169;-84
2023/03/16 00:51:00;;;;;;;0.90;0.90;;;;;;;;;;5020335;28;20170;-83
2023/03/16 00:53:26;;;;;;;0.87;0.87;;;;;;;;;;5011878;28;20239;-82
2023/03/16 00:55:52;;;;;;;0.80;0.80;;;;;;;;;;4999458;28;20558;-83
2023/03/16 00:58:18;;;;;;;0.80;0.80;;;;;;;;;;4999454;28;20339;-84
2023/03/16 01:00:45;;;;;;;0.90;0.90;;;;;;;;;;4999280;28;20327;-84
2023/03/16 01:03:11;;;;;;;0.90;0.90;;;;;;;;;;4997375;28;20208;-84
2023/03/16 01:05:41;;;;;;;0.90;0.90;;;;;;;;;;4998465;28;20576;-83
2023/03/16 01:08:08;;;;;;;0.80;0.80;;;;;;;;;;4999176;28;20184;-83
2023/03/16 01:10:34;;;;;;;0.93;0.93;;;;;;;;;;4999270;28;20645;-83
2023/03/16 01:13:02;;;;;;;0.80;0.80;;;;;;;;;;4998753;28;20205;-84
2023/03/16 01:15:28;;;;;;;0.90;0.90;;;;;;;;;;4999542;28;20181;-84
2023/03/16 01:17:54;;;;;;;0.80;0.80;;;;;;;;;;4998781;28;20179;-83
2023/03/16 01:20:20;;;;;;;0.90;0.90;;;;;;;;;;4998536;28;20612;-84
2023/03/16 01:22:46;;;;;;;0.80;0.80;;;;;;;;;;4998115;28;20228;-84
2023/03/16 01:25:12;;;;;;;0.90;0.90;;;;;;;;;;4998072;28;20240;-84
2023/03/16 01:27:38;;;;;;;0.90;0.90;;;;;;;;;;4998315;28;20192;-84
2023/03/16 01:30:05;;;;;;;0.77;0.77;;;;;;;;;;4998852;28;20185;-84
2023/03/16 01:32:31;;;;;;;0.90;0.90;;;;;;;;;;4998306;28;20561;-83
2023/03/16 01:34:57;;;;;;;0.80;0.80;;;;;;;;;;4997115;28;20169;-85
2023/03/16 01:37:23;;;;;;;0.90;0.90;;;;;;;;;;4998657;28;20244;-84
2023/03/16 01:39:49;;;;;;;0.90;0.90;;;;;;;;;;4998758;28;20558;-85
2023/03/16 01:42:15;;;;;;;0.80;0.80;;;;;;;;;;4996703;28;20177;-85
2023/03/16 01:44:53;;;;;;;0.80;0.80;;;;;;;;;;4996795;28;20209;-84
2023/03/16 01:47:19;;;;;;;0.90;0.90;;;;;;;;;;4996908;28;20234;-84
2023/03/16 01:49:47;;;;;;;0.90;0.90;;;;;;;;;;4996756;28;20213;-85
2023/03/16 01:52:15;;;;;;;0.90;0.90;;;;;;;;;;4997882;28;20189;-82
2023/03/16 01:54:41;;;;;;;0.90;0.90;;;;;;;;;;4997867;28;20185;-83
2023/03/16 01:57:15;;;;;;;0.90;0.90;;;;;;;;;;4997979;28;20204;-85
2023/03/16 01:59:44;;;;;;;0.87;0.87;;;;;;;;;;4998624;28;20185;-85
2023/03/16 02:02:10;;;;;;;0.83;0.83;;;;;;;;;;4999271;28;20186;-84
2023/03/16 02:04:42;;;;;;;0.90;0.90;;;;;;;;;;4999270;28;20831;-85
2023/03/16 02:07:09;;;;;;;0.80;0.80;;;;;;;;;;4998996;28;20516;-84
2023/03/16 02:09:37;;;;;;;0.80;0.80;;;;;;;;;;4999272;28;20181;-84
2023/03/16 02:12:03;;;;;;;0.97;0.97;;;;;;;;;;4999520;28;20196;-84
2023/03/16 02:14:29;;;;;;;0.70;0.70;;;;;;;;;;4996481;28;20255;-83
2023/03/16 02:16:56;;;;;;;0.80;0.80;;;;;;;;;;4996826;28;20277;-83
2023/03/16 02:19:42;;;;;;;0.80;0.80;;;;;;;;;;4996375;28;20189;-83
2023/03/16 02:22:08;;;;;;;0.90;0.90;;;;;;;;;;4996055;28;20177;-84
2023/03/16 02:24:36;;;;;;;0.90;0.90;;;;;;;;;;4996148;28;20208;-84
2023/03/16 02:27:04;;;;;;;0.90;0.90;;;;;;;;;;4996281;28;20396;-84
2023/03/16 02:29:49;;;;;;;0.80;0.80;;;;;;;;;;4995951;28;20185;-83
2023/03/16 02:32:16;;;;;;;0.90;0.90;;;;;;;;;;4995344;28;20177;-84
2023/03/16 02:34:43;;;;;;;0.90;0.90;;;;;;;;;;4995723;28;20181;-85
2023/03/16 02:37:10;;;;;;;0.90;0.90;;;;;;;;;;4995770;28;20178;-83
2023/03/16 02:39:36;;;;;;;0.80;0.80;;;;;;;;;;4995902;28;20185;-84
2023/03/16 02:42:03;;;;;;;0.90;0.90;;;;;;;;;;4994794;28;20240;-83
2023/03/16 02:44:34;;;;;;;0.93;0.93;;;;;;;;;;4994070;28;20213;-84
2023/03/16 02:47:03;;;;;;;0.83;0.83;;;;;;;;;;5004640;28;20184;-84
2023/03/16 02:49:35;;;;;;;0.80;0.80;;;;;;;;;;5018553;28;20193;-84
2023/03/16 02:52:01;;;;;;;1.00;1.00;;;;;;;;;;5018632;28;20268;-84
2023/03/16 02:54:27;;;;;;;0.80;0.80;;;;;;;;;;5018343;28;20228;-83
2023/03/16 02:56:53;;;;;;;0.90;0.90;;;;;;;;;;5019101;28;20192;-84
2023/03/16 02:59:19;;;;;;;0.90;0.90;;;;;;;;;;5014003;28;20201;-85
2023/03/16 03:01:45;;;;;;;0.90;0.90;;;;;;;;;;5013887;28;20185;-85
2023/03/16 03:04:11;;;;;;;0.80;0.80;;;;;;;;;;5012349;28;20220;-83
2023/03/16 03:06:37;;;;;;;0.90;0.90;;;;;;;;;;4999005;28;20173;-84
2023/03/16 03:09:03;;;;;;;0.80;0.80;;;;;;;;;;4996954;28;20185;-84
2023/03/16 03:11:29;;;;;;;0.90;0.90;;;;;;;;;;4997239;28;20203;-84
2023/03/16 03:13:55;;;;;;;0.90;0.90;;;;;;;;;;4996948;28;20197;-86
2023/03/16 03:16:22;;;;;;;0.80;0.80;;;;;;;;;;4998279;28;20181;-85
2023/03/16 03:18:48;;;;;;;1.00;1.00;;;;;;;;;;4998294;28;20228;-85
2023/03/16 03:21:14;;;;;;;1.00;1.00;;;;;;;;;;4998163;28;20177;-86
2023/03/16 03:23:40;;;;;;;0.87;0.87;;;;;;;;;;4998401;28;20201;-85
2023/03/16 03:26:06;;;;;;;0.90;0.90;;;;;;;;;;4997933;28;20180;-84
2023/03/16 03:28:33;;;;;;;0.90;0.90;;;;;;;;;;4998582;28;20758;-85
2023/03/16 03:31:00;;;;;;;0.90;0.90;;;;;;;;;;4998573;28;20180;-84
2023/03/16 03:33:26;;;;;;;1.00;1.00;;;;;;;;;;4998366;28;20264;-86
2023/03/16 03:35:56;;;;;;;1.00;1.00;;;;;;;;;;4998924;28;20173;-85
2023/03/16 03:38:23;;;;;;;0.90;0.90;;;;;;;;;;4998604;28;20192;-85
2023/03/16 03:40:50;;;;;;;0.83;0.83;;;;;;;;;;4997318;28;20181;-85
2023/03/16 03:43:16;;;;;;;0.90;0.90;;;;;;;;;;4998540;28;20224;-85
2023/03/16 03:45:42;;;;;;;0.90;0.90;;;;;;;;;;4999015;28;20232;-85
2023/03/16 03:48:08;;;;;;;0.90;0.90;;;;;;;;;;4998715;28;20195;-85
2023/03/16 03:50:34;;;;;;;1.00;1.00;;;;;;;;;;4999374;28;20181;-86
2023/03/16 03:53:00;;;;;;;0.90;0.90;;;;;;;;;;4999478;28;20681;-86
2023/03/16 03:55:26;;;;;;;0.90;0.90;;;;;;;;;;4999439;28;20185;-85
2023/03/16 03:57:52;;;;;;;0.90;0.90;;;;;;;;;;5000173;28;20173;-85
2023/03/16 04:00:20;;;;;;;0.90;0.90;;;;;;;;;;5000231;28;20185;-85
2023/03/16 04:02:46;;;;;;;0.90;0.90;;;;;;;;;;5000661;28;20201;-86
2023/03/16 04:05:12;;;;;;;0.90;0.90;;;;;;;;;;5000660;28;20243;-85
2023/03/16 04:07:38;;;;;;;0.80;0.80;;;;;;;;;;5001446;28;20185;-85
2023/03/16 04:10:05;;;;;;;0.90;0.90;;;;;;;;;;5013921;28;20189;-83
2023/03/16 04:12:31;;;;;;;0.90;0.90;;;;;;;;;;5038019;22;20244;-89
2023/03/16 04:14:57;;;;;;;0.80;0.80;;;;;;;;;;5000121;28;20180;-89
2023/03/16 04:17:23;;;;;;;0.90;0.90;;;;;;;;;;4999863;28;20648;-89
2023/03/16 04:19:49;;;;;;;0.80;0.80;;;;;;;;;;5000024;28;20187;-88
2023/03/16 04:22:15;;;;;;;0.90;0.90;;;;;;;;;;4999469;28;20598;-88
2023/03/16 04:24:43;;;;;;;0.90;0.90;;;;;;;;;;5000218;28;20232;-88
2023/03/16 04:27:12;;;;;;;0.90;0.90;;;;;;;;;;4999735;28;20173;-88
2023/03/16 04:29:38;;;;;;;0.90;0.90;;;;;;;;;;5000184;28;20644;-87
2023/03/16 04:32:05;;;;;;;0.90;0.90;;;;;;;;;;4998843;28;20177;-87
2023/03/16 04:34:32;;;;;;;0.90;0.90;;;;;;;;;;5000016;28;20201;-87
2023/03/16 04:36:57;;;;;;;0.90;0.90;;;;;;;;;;4999553;28;20710;-87
2023/03/16 04:39:23;;;;;;;0.90;0.90;;;;;;;;;;4999800;28;20209;-87
2023/03/16 04:41:50;;;;;;;0.90;0.90;;;;;;;;;;4999863;28;20584;-87
2023/03/16 04:44:16;;;;;;;0.90;0.90;;;;;;;;;;4998913;28;20567;-87
2023/03/16 04:46:42;;;;;;;0.90;0.90;;;;;;;;;;4999653;28;20239;-87
2023/03/16 04:49:08;;;;;;;1.00;1.00;;;;;;;;;;4999731;28;20177;-87
2023/03/16 04:51:35;;;;;;;0.83;0.83;;;;;;;;;;5000116;28;20177;-87
2023/03/16 04:54:01;;;;;;;1.00;1.00;;;;;;;;;;4999220;28;20243;-88
2023/03/16 04:56:27;;;;;;;0.90;0.90;;;;;;;;;;4999881;28;20663;-90
2023/03/16 04:58:55;;;;;;;0.90;0.90;;;;;;;;;;4999615;28;20208;-87
2023/03/16 05:01:22;;;;;;;0.90;0.90;;;;;;;;;;4999863;28;20177;-87
2023/03/16 05:03:48;;;;;;;0.80;0.80;;;;;;;;;;5000257;28;20212;-87
2023/03/16 05:06:14;;;;;;;1.00;1.00;;;;;;;;;;5000598;28;20239;-87
2023/03/16 05:08:40;;;;;;;0.80;0.80;;;;;;;;;;4999951;28;20235;-89
2023/03/16 05:11:07;;;;;;;0.90;0.90;;;;;;;;;;5000613;28;20181;-87
2023/03/16 05:13:33;;;;;;;0.90;0.90;;;;;;;;;;4999993;28;20702;-86
2023/03/16 05:15:59;;;;;;;0.90;0.90;;;;;;;;;;5000178;28;20204;-88
2023/03/16 05:18:25;;;;;;;0.90;0.90;;;;;;;;;;5000093;28;20260;-88
2023/03/16 05:20:52;;;;;;;0.90;0.90;;;;;;;;;;5013068;28;20197;-87
2023/03/16 05:23:18;;;;;;;0.80;0.80;;;;;;;;;;5020572;28;20196;-87
2023/03/16 05:25:45;;;;;;;0.90;0.90;;;;;;;;;;5017938;28;20660;-87
2023/03/16 05:28:11;;;;;;;0.90;0.90;;;;;;;;;;4999190;28;20572;-87
2023/03/16 05:30:37;;;;;;;0.80;0.80;;;;;;;;;;4997891;28;20181;-87
2023/03/16 05:33:04;;;;;;;1.00;1.00;;;;;;;;;;4997342;28;20192;-87
2023/03/16 05:35:30;;;;;;;0.90;0.90;;;;;;;;;;4997026;28;20186;-87
2023/03/16 05:37:56;;;;;;;0.80;0.80;;;;;;;;;;4997045;28;20185;-87
2023/03/16 05:40:22;;;;;;;0.90;0.90;;;;;;;;;;4996809;28;20283;-88
2023/03/16 05:42:50;;;;;;;0.80;0.80;;;;;;;;;;4996571;28;20279;-87
2023/03/16 05:45:16;;;;;;;0.90;0.90;;;;;;;;;;4996534;28;20583;-87
2023/03/16 05:47:42;;;;;;;1.00;1.00;;;;;;;;;;4996555;28;20224;-87
2023/03/16 05:50:10;;;;;;;1.00;1.00;;;;;;;;;;4997060;28;20188;-87
2023/03/16 05:52:37;;;;;;;1.00;1.00;;;;;;;;;;4996813;28;20193;-87
2023/03/16 05:55:04;;;;;;;0.90;0.90;;;;;;;;;;4996611;28;20648;-87
2023/03/16 05:57:30;;;;;;;0.93;0.93;;;;;;;;;;4996605;28;20181;-87
2023/03/16 05:59:56;;;;;;;0.80;0.80;;;;;;;;;;4997451;28;20621;-87
2023/03/16 06:02:22;;;;;;;0.90;0.90;;;;;;;;;;4996612;28;20656;-87
2023/03/16 06:04:48;;;;;;;0.93;0.93;;;;;;;;;;4996699;28;20231;-87
2023/03/16 06:07:14;;;;;;;0.90;0.90;;;;;;;;;;4997010;28;20641;-86
2023/03/16 06:09:40;;;;;;;1.00;1.00;;;;;;;;;;4996987;28;20244;-87
2023/03/16 06:12:06;;;;;;;0.83;0.83;;;;;;;;;;4997361;28;20174;-87
2023/03/16 06:14:32;;;;;;;0.80;0.80;;;;;;;;;;4995508;28;20219;-87
2023/03/16 06:16:58;;;;;;;0.93;0.93;;;;;;;;;;4995875;28;20177;-87
2023/03/16 06:19:24;;;;;;;0.90;0.90;;;;;;;;;;4996145;28;20184;-87
2023/03/16 06:21:50;;;;;;;0.90;0.90;;;;;;;;;;4995287;28;20192;-87
2023/03/16 06:24:16;;;;;;;0.83;0.83;;;;;;;;;;4998467;28;20219;-87
2023/03/16 06:26:42;;;;;;;0.90;0.90;;;;;;;;;;4996572;28;20173;-86
2023/03/16 06:29:08;;;;;;;0.90;0.90;;;;;;;;;;5001438;28;20179;-86
2023/03/16 06:31:34;;;;;;;0.90;0.90;;;;;;;;;;5017702;28;20173;-86
2023/03/16 06:34:01;;;;;;;0.90;0.90;;;;;;;;;;5017864;28;20197;-88
2023/03/16 06:36:27;;;;;;;1.00;1.00;;;;;;;;;;5008248;28;20189;-85
2023/03/16 06:38:53;;;;;;;0.90;0.90;;;;;;;;;;5002079;28;20189;-85
2023/03/16 06:41:20;;;;;;;1.00;1.00;;;;;;;;;;5003563;28;20216;-91
2023/03/16 06:43:46;;;;;;;0.90;0.90;;;;;;;;;;4998943;28;20208;-88
2023/03/16 06:46:11;;;;;;;0.83;0.83;;;;;;;;;;4997515;28;20645;-89
2023/03/16 06:48:38;;;;;;;0.83;0.83;;;;;;;;;;5000403;28;20295;-88
2023/03/16 06:51:06;;;;;;;0.87;0.87;;;;;;;;;;5000094;28;20213;-88
2023/03/16 06:53:32;;;;;;;0.87;0.87;;;;;;;;;;4998800;28;20269;-90
2023/03/16 06:55:58;;;;;;;0.90;0.90;;;;;;;;;;4999048;28;20873;-88
2023/03/16 06:58:24;;;;;;;0.80;0.80;;;;;;;;;;4999599;28;20185;-88
2023/03/16 07:00:52;;;;;;;0.90;0.90;;;;;;;;;;4998988;28;20185;-87
2023/03/16 07:03:18;;;;;;;0.80;0.80;;;;;;;;;;4997575;28;20197;-87
2023/03/16 07:05:44;;;;;;;0.90;0.90;;;;;;;;;;4997724;28;20213;-86
2023/03/16 07:08:10;;;;;;;0.80;0.80;;;;;;;;;;4999786;28;20173;-86
2023/03/16 07:10:37;;;;;;;0.70;0.70;;;;;;;;;;5001395;28;20188;-87
2023/03/16 07:13:03;;;;;;;0.73;0.73;;;;;;;;;;5001501;28;20260;-86
2023/03/16 07:15:29;;;;;;;0.67;0.67;;;;;;;;;;5002383;28;20169;-86
2023/03/16 07:17:55;;;;;;;0.60;0.60;;;;;;;;;;4997975;28;20182;-85
2023/03/16 07:20:21;;;;;;;0.60;0.60;;;;;;;;;;5000114;28;20700;-85
2023/03/16 07:22:47;;;;;;;0.60;0.60;;;;;;;;;;5000918;28;20710;-84
2023/03/16 07:25:13;;;;;;;0.60;0.60;;;;;;;;;;5001554;28;20204;-84
2023/03/16 07:27:40;;;;;;;0.60;0.60;;;;;;;;;;4998451;28;20174;-85
2023/03/16 07:30:07;;;;;;;0.50;0.50;;;;;;;;;;4997864;28;20199;-85
2023/03/16 07:32:33;;;;;;;0.40;0.40;;;;;;;;;;4999075;28;20296;-86
2023/03/16 07:34:59;;;;;;;0.40;0.40;;;;;;;;;;4997647;28;20177;-86
2023/03/16 07:37:25;;;;;;;0.40;0.40;;;;;;;;;;4997019;28;20181;-85
2023/03/16 07:39:52;;;;;;;0.40;0.40;;;;;;;;;;4997619;28;20185;-86
2023/03/16 07:42:18;;;;;;;0.50;0.50;;;;;;;;;;4997835;28;20239;-86
2023/03/16 07:44:44;;;;;;;0.40;0.40;;;;;;;;;;4997955;28;20213;-85
2023/03/16 07:47:12;;;;;;;0.40;0.40;;;;;;;;;;4997101;28;20223;-85
2023/03/16 07:49:40;;;;;;;0.40;0.40;;;;;;;;;;4998680;28;20189;-83
2023/03/16 07:52:06;;;;;;;0.50;0.50;;;;;;;;;;5000024;28;20181;-83
2023/03/16 07:54:32;;;;;;;0.40;0.40;;;;;;;;;;4997818;28;20207;-85
2023/03/16 07:56:58;;;;;;;0.47;0.47;;;;;;;;;;4998540;28;20188;-84
2023/03/16 07:59:24;;;;;;;0.40;0.40;;;;;;;;;;4997833;28;20280;-86
2023/03/16 08:01:50;;;;;;;0.50;0.50;;;;;;;;;;4997144;28;20189;-85
2023/03/16 08:04:16;;;;;;;0.37;0.37;;;;;;;;;;4996919;28;20239;-87
2023/03/16 08:06:42;;;;;;;0.30;0.30;;;;;;;;;;4997736;28;20181;-89
2023/03/16 08:09:08;;;;;;;0.40;0.40;;;;;;;;;;4997417;28;20185;-85
2023/03/16 08:11:34;;;;;;;0.50;0.50;;;;;;;;;;4997548;28;20208;-86
2023/03/16 08:14:00;;;;;;;0.40;0.40;;;;;;;;;;4996881;28;20703;-86
2023/03/16 08:16:27;;;;;;;0.40;0.40;;;;;;;;;;4998566;28;20181;-87
2023/03/16 08:18:55;;;;;;;0.40;0.40;;;;;;;;;;4996881;28;20189;-85
2023/03/16 08:21:21;;;;;;;0.30;0.30;;;;;;;;;;4995123;28;20181;-86
2023/03/16 08:23:51;;;;;;;0.30;0.30;;;;;;;;;;4997040;28;20308;-83
2023/03/16 08:26:18;;;;;;;0.30;0.30;;;;;;;;;;4996763;28;20189;-88
2023/03/16 08:28:50;;;;;;;0.30;0.30;;;;;;;;;;4997840;28;20544;-83
2023/03/16 08:31:16;;;;;;;0.30;0.30;;;;;;;;;;4998113;28;20173;-84
2023/03/16 08:33:43;;;;;;;0.40;0.40;;;;;;;;;;4997128;28;20193;-83
2023/03/16 08:36:10;;;;;;;0.30;0.30;;;;;;;;;;4997324;28;20188;-83
2023/03/16 08:38:37;;;;;;;0.30;0.30;;;;;;;;;;4996614;28;20181;-85
2023/03/16 08:41:03;;;;;;;0.30;0.30;;;;;;;;;;4997103;28;20188;-84
2023/03/16 08:43:30;;;;;;;0.37;0.37;;;;;;;;;;4996648;28;20231;-83
2023/03/16 08:45:57;;;;;;;0.40;0.40;;;;;;;;;;4996617;28;20245;-83
2023/03/16 08:48:24;;;;;;;0.40;0.40;;;;;;;;;;4996530;28;20185;-84
2023/03/16 08:50:50;;;;;;;0.40;0.40;;;;;;;;;;4996700;28;20604;-84
2023/03/16 08:53:17;;;;;;;0.30;0.30;;;;;;;;;;4997929;28;20197;-84
2023/03/16 08:55:45;;;;;;;0.30;0.30;;;;;;;;;;5002982;28;20165;-84
2023/03/16 08:58:11;;;;;;;0.40;0.40;;;;;;;;;;5017941;28;20191;-82
2023/03/16 09:00:38;;;;;;;0.30;0.30;;;;;;;;;;5020822;28;20170;-86
2023/03/16 09:03:04;;;;;;;0.30;0.30;;;;;;;;;;5005331;28;20197;-84
2023/03/16 09:05:30;;;;;;;0.30;0.30;;;;;;;;;;5001648;28;20217;-84
2023/03/16 09:07:56;;;;;;;0.40;0.40;;;;;;;;;;5002751;28;20293;-84
2023/03/16 09:10:22;;;;;;;0.30;0.30;;;;;;;;;;5003380;28;20180;-83
2023/03/16 09:12:51;;;;;;;0.40;0.40;;;;;;;;;;5002705;28;20571;-86
2023/03/16 09:15:19;;;;;;;0.40;0.40;;;;;;;;;;5003171;28;20192;-86
2023/03/16 09:17:45;;;;;;;0.40;0.40;;;;;;;;;;4999585;28;20292;-83
2023/03/16 09:20:12;;;;;;;0.40;0.40;;;;;;;;;;5002574;28;20193;-83
2023/03/16 09:22:39;;;;;;;0.50;0.50;;;;;;;;;;5001115;28;20227;-83
2023/03/16 09:25:05;;;;;;;0.40;0.40;;;;;;;;;;5000990;28;20633;-84
2023/03/16 09:27:32;;;;;;;0.40;0.40;;;;;;;;;;5002735;28;20185;-82
2023/03/16 09:29:59;;;;;;;0.40;0.40;;;;;;;;;;5002614;28;20181;-80
2023/03/16 09:32:26;;;;;;;0.33;0.33;;;;;;;;;;5000412;28;20268;-81
2023/03/16 09:34:53;;;;;;;0.40;0.40;;;;;;;;;;5001078;28;20185;-81
2023/03/16 09:37:19;;;;;;;0.40;0.40;;;;;;;;;;5001484;28;20224;-81
2023/03/16 09:39:46;;;;;;;0.40;0.40;;;;;;;;;;5001507;28;20199;-84
2023/03/16 09:42:21;;;;;;;0.30;0.30;;;;;;;;;;5003495;28;20276;-82
2023/03/16 09:44:59;;;;;;;0.40;0.40;;;;;;;;;;5000943;28;20227;-82
2023/03/16 09:47:27;;;;;;;0.50;0.50;;;;;;;;;;5002116;28;20173;-85
2023/03/16 09:49:55;;;;;;;0.30;0.30;;;;;;;;;;5000955;28;20708;-84
2023/03/16 09:52:29;;;;;;;0.40;0.40;;;;;;;;;;4997311;28;20173;-82
2023/03/16 09:55:04;;;;;;;0.40;0.40;;;;;;;;;;4999527;28;20192;-84
2023/03/16 09:57:33;;;;;;;0.37;0.37;;;;;;;;;;4997774;28;20284;-83
2023/03/16 10:00:19;;;;;;;0.30;0.30;;;;;;;;;;5000467;28;20189;-83
2023/03/16 10:03:04;;;;;;;0.40;0.40;;;;;;;;;;4999440;28;20763;-82
2023/03/16 10:05:32;;;;;;;0.40;0.40;;;;;;;;;;4997377;28;20236;-83
2023/03/16 10:08:01;;;;;;;0.40;0.40;;;;;;;;;;5001699;28;20185;-83
2023/03/16 10:10:43;;;;;;;0.40;0.40;;;;;;;;;;4996387;28;20593;-82
2023/03/16 10:13:29;;;;;;;0.30;0.30;;;;;;;;;;4996680;28;20216;-85
2023/03/16 10:15:56;;;;;;;0.30;0.30;;;;;;;;;;5001031;28;20192;-84
2023/03/16 10:18:26;;;;;;;0.40;0.40;;;;;;;;;;4996871;28;20200;-84
2023/03/16 10:20:54;;;;;;;0.40;0.40;;;;;;;;;;4999186;28;20648;-83
2023/03/16 10:23:23;;;;;;;0.50;0.50;;;;;;;;;;5002218;28;20212;-82
2023/03/16 10:25:50;;;;;;;0.30;0.30;;;;;;;;;;4999530;28;20235;-87
2023/03/16 10:28:21;;;;;;;0.40;0.40;;;;;;;;;;5003371;28;20185;-85
2023/03/16 10:30:48;;;;;;;0.50;0.50;;;;;;;;;;5002550;28;20173;-83
2023/03/16 10:33:14;;;;;;;0.40;0.40;;;;;;;;;;4991131;28;20276;-83
2023/03/16 10:35:44;;;;;;;0.40;0.40;;;;;;;;;;5000341;28;20201;-81
2023/03/16 10:38:29;;;;;;;0.40;0.40;;;;;;;;;;5003945;28;20181;-84
2023/03/16 10:40:56;;;;;;;0.50;0.50;;;;;;;;;;5015735;28;20193;-82
2023/03/16 10:43:24;;;;;;;0.60;0.60;;;;;;;;;;5008055;28;20202;-81
2023/03/16 10:45:50;;;;;;;0.50;0.50;;;;;;;;;;5007943;28;20287;-82
2023/03/16 10:48:18;;;;;;;0.40;0.40;;;;;;;;;;5011416;28;20193;-81
2023/03/16 10:50:48;;;;;;;0.30;0.30;;;;;;;;;;4984909;28;20169;-85
2023/03/16 10:53:41;;;;;;;0.40;0.40;;;;;;;;;;5001836;28;20217;-82
2023/03/16 10:56:12;;;;;;;0.40;0.40;;;;;;;;;;4980421;28;20205;-83
2023/03/16 10:58:41;;;;;;;0.40;0.40;;;;;;;;;;5000001;28;20177;-83
2023/03/16 11:01:12;;;;;;;0.60;0.60;;;;;;;;;;4999576;28;20177;-84
2023/03/16 11:03:40;;;;;;;0.40;0.40;;;;;;;;;;5001085;28;20213;-83
2023/03/16 11:06:07;;;;;;;0.53;0.53;;;;;;;;;;5002071;28;20675;-82
2023/03/16 11:08:35;;;;;;;0.40;0.40;;;;;;;;;;4999570;28;20220;-81
2023/03/16 11:11:07;;;;;;;0.50;0.50;;;;;;;;;;5001241;28;20224;-82
2023/03/16 11:13:37;;;;;;;0.40;0.40;;;;;;;;;;4999541;28;20248;-82
2023/03/16 11:16:24;;;;;;;0.50;0.50;;;;;;;;;;5001695;28;20654;-82
2023/03/16 11:18:54;;;;;;;0.50;0.50;;;;;;;;;;4998740;28;20181;-81
2023/03/16 11:21:26;;;;;;;0.40;0.40;;;;;;;;;;4991233;28;20249;-84
2023/03/16 11:23:57;;;;;;;0.50;0.50;;;;;;;;;;5000814;28;20209;-81
2023/03/16 11:26:26;;;;;;;0.40;0.40;;;;;;;;;;4998507;28;20196;-81
2023/03/16 11:29:08;;;;;;;0.50;0.50;;;;;;;;;;4987694;28;20185;-83
2023/03/16 11:31:48;;;;;;;0.47;0.47;;;;;;;;;;5000174;28;20264;-83
2023/03/16 11:34:24;;;;;;;0.40;0.40;;;;;;;;;;4999639;28;20683;-83
2023/03/16 11:36:55;;;;;;;0.50;0.50;;;;;;;;;;4982609;28;20644;-82
2023/03/16 11:39:27;;;;;;;0.40;0.40;;;;;;;;;;4998698;28;20272;-83
2023/03/16 11:41:57;;;;;;;0.50;0.50;;;;;;;;;;4998224;28;20185;-83
2023/03/16 11:44:35;;;;;;;0.40;0.40;;;;;;;;;;4999124;28;20213;-84
2023/03/16 11:47:04;;;;;;;0.50;0.50;;;;;;;;;;4999732;28;20287;-83
2023/03/16 11:49:33;;;;;;;0.40;0.40;;;;;;;;;;4998399;28;20180;-83
2023/03/16 11:52:16;;;;;;;0.30;0.30;;;;;;;;;;4999617;28;20165;-83
2023/03/16 11:54:47;;;;;;;0.40;0.40;;;;;;;;;;5000695;28;20184;-83
2023/03/16 11:57:19;;;;;;;0.30;0.30;;;;;;;;;;5002825;28;20181;-81
2023/03/16 12:00:02;;;;;;;0.30;0.30;;;;;;;;;;5015452;28;20157;-87
2023/03/16 12:02:44;;;;;;;0.40;0.40;;;;;;;;;;5015039;28;20200;-85
2023/03/16 12:05:20;;;;;;;0.50;0.50;;;;;;;;;;5006936;28;20209;-84
2023/03/16 12:08:03;;;;;;;0.50;0.50;;;;;;;;;;5002809;28;20192;-84
2023/03/16 12:10:48;;;;;;;0.40;0.40;;;;;;;;;;4998545;28;20273;-84
2023/03/16 12:13:14;;;;;;;0.40;0.40;;;;;;;;;;4999079;28;20231;-83
2023/03/16 12:15:46;;;;;;;0.40;0.40;;;;;;;;;;5014349;28;20169;-82
2023/03/16 12:18:31;;;;;;;0.40;0.40;;;;;;;;;;5017460;28;20184;-83
2023/03/16 12:20:59;;;;;;;0.50;0.50;;;;;;;;;;5017638;28;20169;-80
2023/03/16 12:23:33;;;;;;;0.53;0.53;;;;;;;;;;5017477;28;20278;-80
2023/03/16 12:26:00;;;;;;;0.40;0.40;;;;;;;;;;5017784;28;20204;-81
2023/03/16 12:28:27;;;;;;;0.50;0.50;;;;;;;;;;5018431;28;20257;-80
2023/03/16 12:31:13;;;;;;;0.50;0.50;;;;;;;;;;5017974;28;20176;-86
2023/03/16 12:33:43;;;;;;;0.50;0.50;;;;;;;;;;5019832;28;20196;-85
2023/03/16 12:36:18;;;;;;;0.50;0.50;;;;;;;;;;5018914;28;20734;-81
2023/03/16 12:38:44;;;;;;;0.50;0.50;;;;;;;;;;4995523;28;20176;-82
2023/03/16 12:41:10;;;;;;;0.50;0.50;;;;;;;;;;5004303;28;20272;-82
2023/03/16 12:44:05;;;;;;;0.50;0.50;;;;;;;;;;5003901;28;20193;-83
2023/03/16 12:46:37;;;;;;;0.47;0.47;;;;;;;;;;4992278;28;20193;-85
2023/03/16 12:49:05;;;;;;;0.50;0.50;;;;;;;;;;5001330;28;20252;-85
2023/03/16 12:51:35;;;;;;;0.50;0.50;;;;;;;;;;5002489;28;20207;-83
2023/03/16 12:54:01;;;;;;;0.50;0.50;;;;;;;;;;5001615;28;20201;-83
2023/03/16 12:56:29;;;;;;;0.50;0.50;;;;;;;;;;5000464;28;20237;-84
2023/03/16 12:58:55;;;;;;;0.50;0.50;;;;;;;;;;5001899;28;20185;-84
2023/03/16 13:01:27;;;;;;;0.53;0.53;;;;;;;;;;5001677;28;20228;-82
2023/03/16 13:03:58;;;;;;;0.53;0.53;;;;;;;;;;5002381;28;20204;-84
2023/03/16 13:06:24;;;;;;;0.50;0.50;;;;;;;;;;5003149;28;20207;-86
2023/03/16 13:08:58;;;;;;;0.60;0.60;;;;;;;;;;5001355;28;20298;-84
2023/03/16 13:11:25;;;;;;;0.50;0.50;;;;;;;;;;4991420;28;20177;-85
2023/03/16 13:13:51;;;;;;;0.60;0.60;;;;;;;;;;5001472;28;20221;-83
2023/03/16 13:16:26;;;;;;;0.70;0.70;;;;;;;;;;4999131;28;20188;-83
2023/03/16 13:18:53;;;;;;;0.60;0.60;;;;;;;;;;4999265;28;20219;-85
2023/03/16 13:21:21;;;;;;;0.63;0.63;;;;;;;;;;4999380;28;20173;-84
2023/03/16 13:23:51;;;;;;;0.67;0.67;;;;;;;;;;4999982;28;20193;-85
2023/03/16 13:26:36;;;;;;;0.50;0.50;;;;;;;;;;5000323;28;20732;-84
2023/03/16 13:29:06;;;;;;;0.60;0.60;;;;;;;;;;5000891;28;20181;-85
2023/03/16 13:31:40;;;;;;;0.50;0.50;;;;;;;;;;5001641;28;20185;-84
2023/03/16 13:34:12;;;;;;;0.60;0.60;;;;;;;;;;5000161;28;20556;-84
2023/03/16 13:36:38;;;;;;;0.50;0.50;;;;;;;;;;5000063;28;20239;-84
2023/03/16 13:39:04;;;;;;;0.53;0.53;;;;;;;;;;5000212;28;20184;-83
2023/03/16 13:41:30;;;;;;;0.50;0.50;;;;;;;;;;4997235;28;20492;-83
2023/03/16 13:43:56;;;;;;;0.60;0.60;;;;;;;;;;5000275;28;20197;-85
2023/03/16 13:46:27;;;;;;;0.50;0.50;;;;;;;;;;5001514;28;20181;-87
2023/03/16 13:48:53;;;;;;;0.50;0.50;;;;;;;;;;5000827;28;20315;-83
2023/03/16 13:51:21;;;;;;;0.50;0.50;;;;;;;;;;5000274;28;20185;-85
2023/03/16 13:53:49;;;;;;;0.50;0.50;;;;;;;;;;5000478;28;20284;-84
2023/03/16 13:56:16;;;;;;;0.60;0.60;;;;;;;;;;5001250;28;20729;-85
2023/03/16 13:58:47;;;;;;;0.53;0.53;;;;;;;;;;5000565;28;20188;-83
2023/03/16 14:01:24;;;;;;;0.50;0.50;;;;;;;;;;4999436;28;20205;-82
2023/03/16 14:03:51;;;;;;;0.60;0.60;;;;;;;;;;4998510;28;20213;-83
2023/03/16 14:06:25;;;;;;;0.50;0.50;;;;;;;;;;4999426;28;20185;-83
2023/03/16 14:08:53;;;;;;;0.60;0.60;;;;;;;;;;4999020;28;20187;-82
2023/03/16 14:11:19;;;;;;;0.67;0.67;;;;;;;;;;4998600;28;20212;-84
2023/03/16 14:13:53;;;;;;;0.60;0.60;;;;;;;;;;4997675;28;20216;-84
2023/03/16 14:16:21;;;;;;;0.60;0.60;;;;;;;;;;5000113;28;20212;-84
2023/03/16 14:18:48;;;;;;;0.60;0.60;;;;;;;;;;4999445;28;20199;-82
2023/03/16 14:21:20;;;;;;;0.40;0.40;;;;;;;;;;4987248;28;20182;-82
2023/03/16 14:23:50;;;;;;;0.60;0.60;;;;;;;;;;4997510;28;20225;-82
2023/03/16 14:26:17;;;;;;;0.60;0.60;;;;;;;;;;5003373;28;20200;-83
2023/03/16 14:28:56;;;;;;;0.50;0.50;;;;;;;;;;5006832;28;20193;-83
2023/03/16 14:31:30;;;;;;;0.60;0.60;;;;;;;;;;4990810;28;20193;-82
2023/03/16 14:34:00;;;;;;;0.47;0.47;;;;;;;;;;5007195;28;20208;-82
2023/03/16 14:36:33;;;;;;;0.60;0.60;;;;;;;;;;5005360;28;20193;-82
2023/03/16 14:39:09;;;;;;;0.67;0.67;;;;;;;;;;5007154;28;20180;-82
2023/03/16 14:41:37;;;;;;;0.60;0.60;;;;;;;;;;5007326;28;20244;-81
2023/03/16 14:44:03;;;;;;;0.50;0.50;;;;;;;;;;5006709;28;20255;-84
2023/03/16 14:46:31;;;;;;;0.40;0.40;;;;;;;;;;5006454;28;20197;-82
2023/03/16 14:49:17;;;;;;;0.67;0.67;;;;;;;;;;5005352;28;20189;-82
2023/03/16 14:51:44;;;;;;;0.40;0.40;;;;;;;;;;5005785;28;20173;-81